createdAt,value
2018-11-03T00:00:04.809Z,8.93
2018-11-03T00:01:05.137Z,8.91
2018-11-03T00:02:04.730Z,8.91
2018-11-03T00:03:04.805Z,8.91
2018-11-03T00:04:04.808Z,8.9
2018-11-03T00:05:04.802Z,8.91
2018-11-03T00:06:05.209Z,8.91
2018-11-03T00:07:04.762Z,8.85
2018-11-03T00:08:04.742Z,8.87
2018-11-03T00:09:04.727Z,8.85
2018-11-03T00:10:04.807Z,8.85
2018-11-03T00:11:04.807Z,8.81
2018-11-03T00:12:04.741Z,8.83
2018-11-03T00:13:04.782Z,8.79
2018-11-03T00:14:04.802Z,8.81
2018-11-03T00:15:04.828Z,8.79
2018-11-03T00:16:06.983Z,8.8
2018-11-03T00:17:04.808Z,8.81
2018-11-03T00:18:04.940Z,8.83
2018-11-03T00:19:04.760Z,8.85
2018-11-03T00:20:04.911Z,8.86
2018-11-03T00:21:04.943Z,8.89
2018-11-03T00:22:04.764Z,8.88
2018-11-03T00:23:04.760Z,8.9
2018-11-03T00:24:05.133Z,8.91
2018-11-03T00:25:04.751Z,8.92
2018-11-03T00:26:04.921Z,8.94
2018-11-03T00:27:04.779Z,8.95
2018-11-03T00:28:04.766Z,8.95
2018-11-03T00:29:04.839Z,8.93
2018-11-03T00:30:04.976Z,8.91
2018-11-03T00:31:05.092Z,8.91
2018-11-03T00:32:04.757Z,8.94
2018-11-03T00:33:05.101Z,8.93
2018-11-03T00:34:04.791Z,8.95
2018-11-03T00:35:04.772Z,8.85
2018-11-03T00:36:05.033Z,8.81
2018-11-03T00:37:04.777Z,8.83
2018-11-03T00:38:04.756Z,8.81
2018-11-03T00:39:04.735Z,8.81
2018-11-03T00:40:05.312Z,8.82
2018-11-03T00:41:04.740Z,8.84
2018-11-03T00:42:04.741Z,8.86
2018-11-03T00:43:04.851Z,8.88
2018-11-03T00:44:04.847Z,8.89
2018-11-03T00:45:04.929Z,8.91
2018-11-03T00:46:04.799Z,8.9
2018-11-03T00:47:04.774Z,8.9
2018-11-03T00:48:05.583Z,8.91
2018-11-03T00:49:04.729Z,8.82
2018-11-03T00:50:04.767Z,8.8
2018-11-03T00:51:04.795Z,8.81
2018-11-03T00:52:04.820Z,8.83
2018-11-03T00:53:05.145Z,8.86
2018-11-03T00:54:05.555Z,8.88
2018-11-03T00:55:04.717Z,8.87
2018-11-03T00:56:07.402Z,8.82
2018-11-03T00:57:04.749Z,8.79
2018-11-03T00:58:04.766Z,8.79
2018-11-03T00:59:04.678Z,8.76
2018-11-03T01:00:04.660Z,8.76
2018-11-03T01:01:04.664Z,8.75
2018-11-03T01:02:04.747Z,8.77
2018-11-03T01:03:04.981Z,8.77
2018-11-03T01:04:04.663Z,8.79
2018-11-03T01:05:04.809Z,8.82
2018-11-03T01:06:07.636Z,8.77
2018-11-03T01:07:04.769Z,8.8
2018-11-03T01:08:05.058Z,8.83
2018-11-03T01:09:04.766Z,8.83
2018-11-03T01:10:04.665Z,8.85
2018-11-03T01:11:04.665Z,8.86
2018-11-03T01:12:05.018Z,8.85
2018-11-03T01:13:04.737Z,8.83
2018-11-03T01:14:04.611Z,8.84
2018-11-03T01:15:04.965Z,8.84
2018-11-03T01:16:04.642Z,8.85
2018-11-03T01:17:04.618Z,8.88
2018-11-03T01:18:04.721Z,8.86
2018-11-03T01:19:04.831Z,8.86
2018-11-03T01:20:04.802Z,8.88
2018-11-03T01:21:04.657Z,8.9
2018-11-03T01:22:04.846Z,8.89
2018-11-03T01:23:04.795Z,8.9
2018-11-03T01:24:05.267Z,8.89
2018-11-03T01:25:04.671Z,8.9
2018-11-03T01:26:04.627Z,8.89
2018-11-03T01:27:04.656Z,8.91
2018-11-03T01:28:04.608Z,8.84
2018-11-03T01:29:04.722Z,8.87
2018-11-03T01:30:04.581Z,8.84
2018-11-03T01:31:04.591Z,8.85
2018-11-03T01:32:04.592Z,8.86
2018-11-03T01:33:04.602Z,8.79
2018-11-03T01:34:04.595Z,8.73
2018-11-03T01:35:04.622Z,8.74
2018-11-03T01:36:04.610Z,8.77
2018-11-03T01:37:04.640Z,8.77
2018-11-03T01:38:04.656Z,8.8
2018-11-03T01:39:04.653Z,8.8
2018-11-03T01:40:04.625Z,8.81
2018-11-03T01:41:04.599Z,8.83
2018-11-03T01:42:04.667Z,8.82
2018-11-03T01:43:04.636Z,8.83
2018-11-03T01:44:04.597Z,8.84
2018-11-03T01:45:04.592Z,8.83
2018-11-03T01:46:06.886Z,8.78
2018-11-03T01:47:04.949Z,8.81
2018-11-03T01:48:04.690Z,8.82
2018-11-03T01:49:04.811Z,8.85
2018-11-03T01:50:05.198Z,8.84
2018-11-03T01:51:04.733Z,8.82
2018-11-03T01:52:04.843Z,8.82
2018-11-03T01:53:04.933Z,8.84
2018-11-03T01:54:04.627Z,8.83
2018-11-03T01:55:04.704Z,8.8
2018-11-03T01:56:07.676Z,8.83
2018-11-03T01:57:04.687Z,8.83
2018-11-03T01:58:04.643Z,8.85
2018-11-03T01:59:04.520Z,8.84
2018-11-03T02:00:04.811Z,8.84
2018-11-03T02:01:04.650Z,8.83
2018-11-03T02:02:04.579Z,8.84
2018-11-03T02:03:04.623Z,8.85
2018-11-03T02:04:04.758Z,8.74
2018-11-03T02:05:04.578Z,8.69
2018-11-03T02:06:06.922Z,8.71
2018-11-03T02:07:04.616Z,8.65
2018-11-03T02:08:04.721Z,8.62
2018-11-03T02:09:04.681Z,8.6
2018-11-03T02:10:05.310Z,8.62
2018-11-03T02:11:04.663Z,8.64
2018-11-03T02:12:05.405Z,8.63
2018-11-03T02:13:04.598Z,8.65
2018-11-03T02:14:04.618Z,8.64
2018-11-03T02:15:04.737Z,8.66
2018-11-03T02:16:05.141Z,8.66
2018-11-03T02:17:04.853Z,8.64
2018-11-03T02:18:04.700Z,8.6
2018-11-03T02:19:04.618Z,8.57
2018-11-03T02:20:05.184Z,8.58
2018-11-03T02:21:05.019Z,8.6
2018-11-03T02:22:04.632Z,8.6
2018-11-03T02:23:04.704Z,8.57
2018-11-03T02:24:04.856Z,8.6
2018-11-03T02:25:04.914Z,8.58
2018-11-03T02:26:04.707Z,8.5
2018-11-03T02:27:05.124Z,8.47
2018-11-03T02:28:04.547Z,8.49
2018-11-03T02:29:04.628Z,8.51
2018-11-03T02:30:05.427Z,8.49
2018-11-03T02:31:04.534Z,8.47
2018-11-03T02:32:04.918Z,8.48
2018-11-03T02:33:04.681Z,8.49
2018-11-03T02:34:05.017Z,8.51
2018-11-03T02:35:04.572Z,8.5
2018-11-03T02:36:04.578Z,8.5
2018-11-03T02:37:07.456Z,8.51
2018-11-03T02:38:04.851Z,8.46
2018-11-03T02:39:05.102Z,8.36
2018-11-03T02:40:05.197Z,8.37
2018-11-03T02:41:04.962Z,8.35
2018-11-03T02:42:04.889Z,8.28
2018-11-03T02:43:04.768Z,8.29
2018-11-03T02:44:04.736Z,8.25
2018-11-03T02:45:04.733Z,8.3
2018-11-03T02:46:04.881Z,8.25
2018-11-03T02:47:07.173Z,8.23
2018-11-03T02:48:04.654Z,8.21
2018-11-03T02:49:04.617Z,8.18
2018-11-03T02:50:04.940Z,8.17
2018-11-03T02:51:04.676Z,8.2
2018-11-03T02:52:04.508Z,8.24
2018-11-03T02:53:04.900Z,8.25
2018-11-03T02:54:04.527Z,8.29
2018-11-03T02:55:04.628Z,8.27
2018-11-03T02:56:04.568Z,8.24
2018-11-03T02:57:07.001Z,8.26
2018-11-03T02:58:04.487Z,8.26
2018-11-03T02:59:04.596Z,8.29
2018-11-03T03:00:04.487Z,8.28
2018-11-03T03:01:04.630Z,8.28
2018-11-03T03:02:04.606Z,8.26
2018-11-03T03:03:04.725Z,8.26
2018-11-03T03:04:04.484Z,8.26
2018-11-03T03:05:04.580Z,8.18
2018-11-03T03:06:04.505Z,8.2
2018-11-03T03:07:06.936Z,8.21
2018-11-03T03:08:04.455Z,8.2
2018-11-03T03:09:04.624Z,8.23
2018-11-03T03:10:04.530Z,8.22
2018-11-03T03:11:04.493Z,8.23
2018-11-03T03:12:04.547Z,8.27
2018-11-03T03:13:04.572Z,8.27
2018-11-03T03:14:04.530Z,8.26
2018-11-03T03:15:04.463Z,8.25
2018-11-03T03:16:04.439Z,8.25
2018-11-03T03:17:06.898Z,8.25
2018-11-03T03:18:04.454Z,8.21
2018-11-03T03:19:04.513Z,8.17
2018-11-03T03:20:04.621Z,8.14
2018-11-03T03:21:04.509Z,8.18
2018-11-03T03:22:04.507Z,8.2
2018-11-03T03:23:04.553Z,8.2
2018-11-03T03:24:04.432Z,8.23
2018-11-03T03:25:04.962Z,8.22
2018-11-03T03:26:05.176Z,8.25
2018-11-03T03:27:07.064Z,8.24
2018-11-03T03:28:04.642Z,8.2
2018-11-03T03:29:06.989Z,8.2
2018-11-03T03:30:04.506Z,8.2
2018-11-03T03:31:04.494Z,8.19
2018-11-03T03:32:04.598Z,8.17
2018-11-03T03:33:04.824Z,8.15
2018-11-03T03:34:04.462Z,8.15
2018-11-03T03:35:04.584Z,8.16
2018-11-03T03:36:04.622Z,8.17
2018-11-03T03:37:04.589Z,8.17
2018-11-03T03:38:04.806Z,8.17
2018-11-03T03:39:04.450Z,8.19
2018-11-03T03:40:04.868Z,8.2
2018-11-03T03:41:04.463Z,8.21
2018-11-03T03:42:04.759Z,8.2
2018-11-03T03:43:04.482Z,8.17
2018-11-03T03:44:04.802Z,8.16
2018-11-03T03:45:04.773Z,8.16
2018-11-03T03:46:05.286Z,8.19
2018-11-03T03:47:05.264Z,8.16
2018-11-03T03:48:04.380Z,8.16
2018-11-03T03:49:04.619Z,8.15
2018-11-03T03:50:04.506Z,8.14
2018-11-03T03:51:04.575Z,8.13
2018-11-03T03:52:05.262Z,8.12
2018-11-03T03:53:04.457Z,8.09
2018-11-03T03:54:04.773Z,8.09
2018-11-03T03:55:04.667Z,8.1
2018-11-03T03:56:04.598Z,8.1
2018-11-03T03:57:04.785Z,8.09
2018-11-03T03:58:04.664Z,8.09
2018-11-03T03:59:04.856Z,8.08
2018-11-03T04:00:04.571Z,8.09
2018-11-03T04:01:04.807Z,8.09
2018-11-03T04:02:04.386Z,8.08
2018-11-03T04:03:04.731Z,8.08
2018-11-03T04:04:04.491Z,8.09
2018-11-03T04:05:04.412Z,8.09
2018-11-03T04:06:05.534Z,8.08
2018-11-03T04:07:04.470Z,8.1
2018-11-03T04:08:04.412Z,8.1
2018-11-03T04:09:04.445Z,8.11
2018-11-03T04:10:04.809Z,8.12
2018-11-03T04:11:04.483Z,8.14
2018-11-03T04:12:04.416Z,8.15
2018-11-03T04:13:04.367Z,8.15
2018-11-03T04:14:04.417Z,8.12
2018-11-03T04:15:04.770Z,8.12
2018-11-03T04:16:06.393Z,8.13
2018-11-03T04:17:04.409Z,8.15
2018-11-03T04:18:04.380Z,8.15
2018-11-03T04:19:04.504Z,8.15
2018-11-03T04:20:04.528Z,8.15
2018-11-03T04:21:04.656Z,8.15
2018-11-03T04:22:04.445Z,8.16
2018-11-03T04:23:04.534Z,8.13
2018-11-03T04:24:05.210Z,8.16
2018-11-03T04:25:04.462Z,8.15
2018-11-03T04:26:06.892Z,8.15
2018-11-03T04:27:04.653Z,8.15
2018-11-03T04:28:04.759Z,8.14
2018-11-03T04:29:04.421Z,8.06
2018-11-03T04:30:04.397Z,8.08
2018-11-03T04:31:04.336Z,8.05
2018-11-03T04:32:04.379Z,7.96
2018-11-03T04:33:04.378Z,8.01
2018-11-03T04:34:04.427Z,7.98
2018-11-03T04:35:04.444Z,7.82
2018-11-03T04:36:04.571Z,7.8
2018-11-03T04:37:04.479Z,7.8
2018-11-03T04:38:04.538Z,7.77
2018-11-03T04:39:04.354Z,7.75
2018-11-03T04:40:04.469Z,7.72
2018-11-03T04:41:04.368Z,7.62
2018-11-03T04:42:04.406Z,7.56
2018-11-03T04:43:04.355Z,7.63
2018-11-03T04:44:04.361Z,7.66
2018-11-03T04:45:04.863Z,7.68
2018-11-03T04:46:04.337Z,7.66
2018-11-03T04:47:04.345Z,7.58
2018-11-03T04:48:04.402Z,7.5
2018-11-03T04:49:04.325Z,7.56
2018-11-03T04:50:04.390Z,7.55
2018-11-03T04:51:04.355Z,7.62
2018-11-03T04:52:04.350Z,7.58
2018-11-03T04:53:04.960Z,7.59
2018-11-03T04:54:04.461Z,7.64
2018-11-03T04:55:06.013Z,7.62
2018-11-03T04:56:04.715Z,7.64
2018-11-03T04:57:04.463Z,7.71
2018-11-03T04:58:04.722Z,7.73
2018-11-03T04:59:04.280Z,7.81
2018-11-03T05:00:04.821Z,7.94
2018-11-03T05:01:04.402Z,7.97
2018-11-03T05:02:04.372Z,7.99
2018-11-03T05:03:04.540Z,7.98
2018-11-03T05:04:04.536Z,7.99
2018-11-03T05:05:04.820Z,7.97
2018-11-03T05:06:04.743Z,7.96
2018-11-03T05:07:04.386Z,7.96
2018-11-03T05:08:04.576Z,8
2018-11-03T05:09:04.369Z,7.97
2018-11-03T05:10:05.338Z,8.02
2018-11-03T05:11:05.177Z,8.01
2018-11-03T05:12:04.337Z,8.02
2018-11-03T05:13:04.291Z,8
2018-11-03T05:14:04.490Z,8
2018-11-03T05:15:04.607Z,7.99
2018-11-03T05:16:04.370Z,7.96
2018-11-03T05:17:04.722Z,7.96
2018-11-03T05:18:04.547Z,7.94
2018-11-03T05:19:04.304Z,7.93
2018-11-03T05:20:04.437Z,7.89
2018-11-03T05:21:04.763Z,7.89
2018-11-03T05:22:04.423Z,7.89
2018-11-03T05:23:04.533Z,7.87
2018-11-03T05:24:04.286Z,7.86
2018-11-03T05:25:04.460Z,7.86
2018-11-03T05:26:04.371Z,7.81
2018-11-03T05:27:04.294Z,7.81
2018-11-03T05:28:04.303Z,7.78
2018-11-03T05:29:04.385Z,7.75
2018-11-03T05:30:04.433Z,7.73
2018-11-03T05:31:05.129Z,7.76
2018-11-03T05:32:04.389Z,7.76
2018-11-03T05:33:04.268Z,7.73
2018-11-03T05:34:04.450Z,7.72
2018-11-03T05:35:04.683Z,7.7
2018-11-03T05:36:04.414Z,7.72
2018-11-03T05:37:04.292Z,7.72
2018-11-03T05:38:04.292Z,7.72
2018-11-03T05:39:04.919Z,7.71
2018-11-03T05:40:04.374Z,7.7
2018-11-03T05:41:04.467Z,7.65
2018-11-03T05:42:04.792Z,7.64
2018-11-03T05:43:04.427Z,7.64
2018-11-03T05:44:04.550Z,7.62
2018-11-03T05:45:04.278Z,7.56
2018-11-03T05:46:06.577Z,7.57
2018-11-03T05:47:04.503Z,7.56
2018-11-03T05:48:04.560Z,7.54
2018-11-03T05:49:04.643Z,7.55
2018-11-03T05:50:04.309Z,7.55
2018-11-03T05:51:04.970Z,7.58
2018-11-03T05:52:04.547Z,7.57
2018-11-03T05:53:04.349Z,7.58
2018-11-03T05:54:04.452Z,7.58
2018-11-03T05:55:04.687Z,7.59
2018-11-03T05:56:06.675Z,7.6
2018-11-03T05:57:04.709Z,7.58
2018-11-03T05:58:05.088Z,7.59
2018-11-03T05:59:05.999Z,7.59
2018-11-03T06:00:04.358Z,7.59
2018-11-03T06:01:04.295Z,7.59
2018-11-03T06:02:04.540Z,7.59
2018-11-03T06:03:04.622Z,7.6
2018-11-03T06:04:04.487Z,7.6
2018-11-03T06:05:04.285Z,7.61
2018-11-03T06:06:06.240Z,7.6
2018-11-03T06:07:04.262Z,7.6
2018-11-03T06:08:04.298Z,7.63
2018-11-03T06:09:04.258Z,7.6
2018-11-03T06:10:04.289Z,7.64
2018-11-03T06:11:04.253Z,7.61
2018-11-03T06:12:04.184Z,7.63
2018-11-03T06:13:04.303Z,7.62
2018-11-03T06:14:04.565Z,7.65
2018-11-03T06:15:04.450Z,7.65
2018-11-03T06:16:05.595Z,7.67
2018-11-03T06:17:04.220Z,7.66
2018-11-03T06:18:04.425Z,7.66
2018-11-03T06:19:04.218Z,7.69
2018-11-03T06:20:04.358Z,7.67
2018-11-03T06:21:04.229Z,7.67
2018-11-03T06:22:04.197Z,7.67
2018-11-03T06:23:05.561Z,7.67
2018-11-03T06:24:04.213Z,7.67
2018-11-03T06:25:04.472Z,7.66
2018-11-03T06:26:05.652Z,7.64
2018-11-03T06:27:04.338Z,7.65
2018-11-03T06:28:05.462Z,7.63
2018-11-03T06:29:04.672Z,7.58
2018-11-03T06:30:04.311Z,7.54
2018-11-03T06:31:04.229Z,7.52
2018-11-03T06:32:04.524Z,7.45
2018-11-03T06:33:04.336Z,7.47
2018-11-03T06:34:04.340Z,7.47
2018-11-03T06:35:05.393Z,7.46
2018-11-03T06:36:04.707Z,7.46
2018-11-03T06:37:04.626Z,7.47
2018-11-03T06:38:04.249Z,7.48
2018-11-03T06:39:06.165Z,7.47
2018-11-03T06:40:04.679Z,7.44
2018-11-03T06:41:04.273Z,7.47
2018-11-03T06:42:04.243Z,7.47
2018-11-03T06:43:04.266Z,7.48
2018-11-03T06:44:04.292Z,7.48
2018-11-03T06:45:04.308Z,7.48
2018-11-03T06:46:04.512Z,7.49
2018-11-03T06:47:04.485Z,7.49
2018-11-03T06:48:04.558Z,7.51
2018-11-03T06:49:04.266Z,7.5
2018-11-03T06:50:04.562Z,7.53
2018-11-03T06:51:04.202Z,7.53
2018-11-03T06:52:04.797Z,7.54
2018-11-03T06:53:04.381Z,7.54
2018-11-03T06:54:04.373Z,7.54
2018-11-03T06:55:04.509Z,7.55
2018-11-03T06:56:04.277Z,7.55
2018-11-03T06:57:04.619Z,7.59
2018-11-03T06:58:04.302Z,7.59
2018-11-03T06:59:04.178Z,7.58
2018-11-03T07:00:04.484Z,7.53
2018-11-03T07:01:04.324Z,7.54
2018-11-03T07:02:04.482Z,7.54
2018-11-03T07:03:04.216Z,7.55
2018-11-03T07:04:04.293Z,7.52
2018-11-03T07:05:05.251Z,7.55
2018-11-03T07:06:04.527Z,7.59
2018-11-03T07:07:04.197Z,7.58
2018-11-03T07:08:04.227Z,7.59
2018-11-03T07:09:04.299Z,7.56
2018-11-03T07:10:04.315Z,7.6
2018-11-03T07:11:04.160Z,7.56
2018-11-03T07:12:05.283Z,7.51
2018-11-03T07:13:04.948Z,7.44
2018-11-03T07:14:04.151Z,7.36
2018-11-03T07:15:04.720Z,7.27
2018-11-03T07:16:04.244Z,7.31
2018-11-03T07:17:04.719Z,7.35
2018-11-03T07:18:04.126Z,7.38
2018-11-03T07:19:04.127Z,7.41
2018-11-03T07:20:04.098Z,7.39
2018-11-03T07:21:04.217Z,7.28
2018-11-03T07:22:04.396Z,7.26
2018-11-03T07:23:04.116Z,7.2
2018-11-03T07:24:04.477Z,7.22
2018-11-03T07:25:04.482Z,7.23
2018-11-03T07:26:06.708Z,7.21
2018-11-03T07:27:04.283Z,7.22
2018-11-03T07:28:04.336Z,7.22
2018-11-03T07:29:04.228Z,7.21
2018-11-03T07:30:04.323Z,7.2
2018-11-03T07:31:04.390Z,7.18
2018-11-03T07:32:04.263Z,7.2
2018-11-03T07:33:04.271Z,7.2
2018-11-03T07:34:04.362Z,7.23
2018-11-03T07:35:04.551Z,7.15
2018-11-03T07:36:04.143Z,7.19
2018-11-03T07:37:04.433Z,7.14
2018-11-03T07:38:04.150Z,7.13
2018-11-03T07:39:04.153Z,7.13
2018-11-03T07:40:04.242Z,7.13
2018-11-03T07:41:05.926Z,7.15
2018-11-03T07:42:04.154Z,7.18
2018-11-03T07:43:04.184Z,7.19
2018-11-03T07:44:04.225Z,7.2
2018-11-03T07:45:05.821Z,7.13
2018-11-03T07:46:04.175Z,7.18
2018-11-03T07:47:04.201Z,7.19
2018-11-03T07:48:05.188Z,7.22
2018-11-03T07:49:07.300Z,7.24
2018-11-03T07:50:04.101Z,7.29
2018-11-03T07:51:04.238Z,7.3
2018-11-03T07:52:04.244Z,7.31
2018-11-03T07:53:04.424Z,7.35
2018-11-03T07:54:04.650Z,7.34
2018-11-03T07:55:06.699Z,7.34
2018-11-03T07:56:04.163Z,7.32
2018-11-03T07:57:04.198Z,7.34
2018-11-03T07:58:04.085Z,7.37
2018-11-03T07:59:04.357Z,7.44
2018-11-03T08:00:04.189Z,7.43
2018-11-03T08:01:04.416Z,7.49
2018-11-03T08:02:04.333Z,7.49
2018-11-03T08:03:04.194Z,7.52
2018-11-03T08:04:06.040Z,7.49
2018-11-03T08:05:04.436Z,7.51
2018-11-03T08:06:04.186Z,7.53
2018-11-03T08:07:04.397Z,7.57
2018-11-03T08:08:04.148Z,7.56
2018-11-03T08:09:05.236Z,7.58
2018-11-03T08:10:04.262Z,7.5
2018-11-03T08:11:04.736Z,7.47
2018-11-03T08:12:04.333Z,7.49
2018-11-03T08:13:04.361Z,7.51
2018-11-03T08:14:05.928Z,7.5
2018-11-03T08:15:04.205Z,7.52
2018-11-03T08:16:04.414Z,7.54
2018-11-03T08:17:04.468Z,7.58
2018-11-03T08:18:04.216Z,7.61
2018-11-03T08:19:04.392Z,7.61
2018-11-03T08:20:04.265Z,7.65
2018-11-03T08:21:04.051Z,7.68
2018-11-03T08:22:04.222Z,7.72
2018-11-03T08:23:04.287Z,7.72
2018-11-03T08:24:07.095Z,7.74
2018-11-03T08:25:04.057Z,7.76
2018-11-03T08:26:04.191Z,7.79
2018-11-03T08:27:04.253Z,7.78
2018-11-03T08:28:04.109Z,7.83
2018-11-03T08:29:04.242Z,7.85
2018-11-03T08:30:04.518Z,7.89
2018-11-03T08:31:04.184Z,7.91
2018-11-03T08:32:04.105Z,7.93
2018-11-03T08:33:04.590Z,7.99
2018-11-03T08:34:04.887Z,8.01
2018-11-03T08:35:04.265Z,8.09
2018-11-03T08:36:04.267Z,8.12
2018-11-03T08:37:04.184Z,8.08
2018-11-03T08:38:04.501Z,8.09
2018-11-03T08:39:04.170Z,8.12
2018-11-03T08:40:04.378Z,8.14
2018-11-03T08:41:04.101Z,8.21
2018-11-03T08:42:04.154Z,8.24
2018-11-03T08:43:04.233Z,8.27
2018-11-03T08:44:04.365Z,8.29
2018-11-03T08:45:05.193Z,8.34
2018-11-03T08:46:04.145Z,8.34
2018-11-03T08:47:04.058Z,8.34
2018-11-03T08:48:04.795Z,8.34
2018-11-03T08:49:04.668Z,8.37
2018-11-03T08:50:04.009Z,8.36
2018-11-03T08:51:04.309Z,8.39
2018-11-03T08:52:04.105Z,8.4
2018-11-03T08:53:04.410Z,8.43
2018-11-03T08:54:04.051Z,8.46
2018-11-03T08:55:06.494Z,8.47
2018-11-03T08:56:04.023Z,8.49
2018-11-03T08:57:03.978Z,8.52
2018-11-03T08:58:04.118Z,8.5
2018-11-03T08:59:04.071Z,8.58
2018-11-03T09:00:04.951Z,8.62
2018-11-03T09:01:04.110Z,8.64
2018-11-03T09:02:04.128Z,8.67
2018-11-03T09:03:04.264Z,8.72
2018-11-03T09:04:04.138Z,8.79
2018-11-03T09:05:05.711Z,8.79
2018-11-03T09:06:04.018Z,8.77
2018-11-03T09:07:06.082Z,8.79
2018-11-03T09:08:04.013Z,8.85
2018-11-03T09:10:04.030Z,8.86
2018-11-03T09:11:04.332Z,8.91
2018-11-03T09:12:03.982Z,8.92
2018-11-03T09:13:04.201Z,8.92
2018-11-03T09:14:03.961Z,8.95
2018-11-03T09:15:06.728Z,9.01
2018-11-03T09:16:04.067Z,9
2018-11-03T09:17:04.362Z,9.05
2018-11-03T09:18:04.304Z,9.06
2018-11-03T09:19:04.051Z,9.12
2018-11-03T09:20:04.015Z,9.13
2018-11-03T09:21:03.977Z,9.13
2018-11-03T09:22:04.030Z,9.12
2018-11-03T09:23:03.964Z,9.12
2018-11-03T09:24:04.040Z,9.14
2018-11-03T09:25:03.980Z,9.15
2018-11-03T09:26:03.996Z,9.16
2018-11-03T09:27:04.003Z,9.14
2018-11-03T09:28:03.999Z,9.11
2018-11-03T09:29:04.204Z,9.12
2018-11-03T09:30:03.968Z,9.12
2018-11-03T09:31:04.047Z,9.15
2018-11-03T09:32:05.698Z,9.18
2018-11-03T09:33:03.996Z,9.15
2018-11-03T09:34:03.966Z,9.22
2018-11-03T09:35:03.969Z,9.24
2018-11-03T09:36:06.488Z,9.26
2018-11-03T09:37:04.073Z,9.34
2018-11-03T09:38:04.059Z,9.38
2018-11-03T09:39:05.043Z,9.44
2018-11-03T09:40:04.221Z,9.47
2018-11-03T09:41:04.026Z,9.56
2018-11-03T09:42:04.013Z,9.58
2018-11-03T09:43:05.475Z,9.7
2018-11-03T09:44:03.995Z,9.67
2018-11-03T09:45:05.872Z,9.66
2018-11-03T09:46:06.433Z,9.68
2018-11-03T09:47:04.153Z,9.7
2018-11-03T09:48:04.241Z,9.74
2018-11-03T09:49:04.508Z,9.76
2018-11-03T09:50:04.009Z,9.82
2018-11-03T09:51:04.817Z,9.88
2018-11-03T09:52:03.925Z,9.9
2018-11-03T09:53:03.923Z,9.92
2018-11-03T09:54:04.065Z,9.93
2018-11-03T09:55:03.958Z,9.95
2018-11-03T09:56:05.791Z,9.92
2018-11-03T09:57:04.239Z,9.93
2018-11-03T09:58:04.119Z,9.98
2018-11-03T09:59:03.960Z,9.99
2018-11-03T10:00:04.721Z,10.01
2018-11-03T10:01:04.265Z,10.02
2018-11-03T10:02:04.001Z,9.97
2018-11-03T10:03:04.272Z,9.95
2018-11-03T10:04:04.507Z,9.99
2018-11-03T10:05:04.183Z,10.06
2018-11-03T10:06:05.749Z,10.09
2018-11-03T10:07:03.942Z,10.17
2018-11-03T10:08:03.921Z,10.19
2018-11-03T10:09:04.196Z,10.2
2018-11-03T10:10:03.980Z,10.19
2018-11-03T10:11:03.871Z,10.24
2018-11-03T10:12:04.050Z,10.27
2018-11-03T10:13:03.965Z,10.33
2018-11-03T10:14:03.937Z,10.36
2018-11-03T10:15:03.874Z,10.37
2018-11-03T10:16:05.942Z,10.4
2018-11-03T10:17:04.706Z,10.4
2018-11-03T10:18:03.921Z,10.39
2018-11-03T10:19:04.296Z,10.39
2018-11-03T10:20:04.158Z,10.44
2018-11-03T10:21:03.985Z,10.48
2018-11-03T10:22:04.772Z,10.5
2018-11-03T10:23:05.694Z,10.49
2018-11-03T10:24:03.974Z,10.55
2018-11-03T10:25:04.141Z,10.58
2018-11-03T10:26:05.039Z,10.65
2018-11-03T10:27:03.983Z,10.65
2018-11-03T10:28:03.995Z,10.63
2018-11-03T10:29:03.955Z,10.67
2018-11-03T10:30:03.968Z,10.72
2018-11-03T10:31:03.943Z,10.67
2018-11-03T10:32:03.870Z,10.7
2018-11-03T10:33:03.912Z,10.77
2018-11-03T10:34:04.334Z,10.81
2018-11-03T10:35:04.190Z,10.83
2018-11-03T10:36:04.565Z,10.78
2018-11-03T10:37:04.063Z,10.8
2018-11-03T10:38:03.952Z,10.86
2018-11-03T10:39:03.865Z,10.86
2018-11-03T10:40:03.832Z,10.92
2018-11-03T10:41:03.967Z,10.93
2018-11-03T10:42:04.289Z,10.94
2018-11-03T10:43:03.882Z,10.96
2018-11-03T10:44:03.893Z,10.96
2018-11-03T10:45:03.817Z,10.97
2018-11-03T10:46:04.303Z,11.05
2018-11-03T10:47:04.023Z,11.13
2018-11-03T10:48:03.798Z,11.14
2018-11-03T10:49:03.888Z,11.19
2018-11-03T10:50:03.838Z,11.23
2018-11-03T10:51:03.842Z,11.2
2018-11-03T10:52:03.907Z,11.18
2018-11-03T10:53:03.933Z,11.24
2018-11-03T10:54:03.844Z,11.2
2018-11-03T10:55:03.827Z,11.21
2018-11-03T10:56:03.810Z,11.2
2018-11-03T10:57:06.512Z,11.17
2018-11-03T10:58:03.832Z,11.15
2018-11-03T10:59:03.826Z,11.17
2018-11-03T11:00:03.884Z,11.21
2018-11-03T11:01:03.770Z,11.22
2018-11-03T11:02:04.135Z,11.21
2018-11-03T11:03:03.817Z,11.22
2018-11-03T11:04:03.972Z,11.22
2018-11-03T11:05:03.945Z,11.18
2018-11-03T11:06:04.090Z,11.18
2018-11-03T11:07:06.244Z,11.17
2018-11-03T11:08:04.026Z,11.21
2018-11-03T11:09:04.213Z,11.23
2018-11-03T11:10:03.802Z,11.23
2018-11-03T11:11:04.049Z,11.29
2018-11-03T11:12:04.484Z,11.31
2018-11-03T11:13:03.864Z,11.34
2018-11-03T11:14:05.003Z,11.36
2018-11-03T11:15:03.842Z,11.41
2018-11-03T11:16:04.358Z,11.44
2018-11-03T11:17:06.473Z,11.49
2018-11-03T11:18:03.966Z,11.51
2018-11-03T11:19:03.861Z,11.54
2018-11-03T11:20:04.014Z,11.55
2018-11-03T11:21:03.819Z,11.59
2018-11-03T11:22:03.890Z,11.63
2018-11-03T11:23:03.812Z,11.63
2018-11-03T11:24:05.229Z,11.61
2018-11-03T11:25:06.623Z,11.59
2018-11-03T11:26:03.773Z,11.59
2018-11-03T11:27:05.936Z,11.65
2018-11-03T11:28:03.940Z,11.67
2018-11-03T11:29:03.896Z,11.71
2018-11-03T11:30:03.898Z,11.68
2018-11-03T11:31:03.886Z,11.67
2018-11-03T11:32:03.873Z,11.67
2018-11-03T11:33:04.624Z,11.64
2018-11-03T11:34:04.205Z,11.61
2018-11-03T11:35:03.969Z,11.62
2018-11-03T11:36:03.861Z,11.6
2018-11-03T11:37:04.932Z,11.63
2018-11-03T11:38:03.866Z,11.64
2018-11-03T11:39:04.576Z,11.67
2018-11-03T11:40:03.804Z,11.69
2018-11-03T11:41:04.009Z,11.71
2018-11-03T11:42:04.020Z,11.71
2018-11-03T11:43:05.028Z,11.69
2018-11-03T11:44:03.905Z,11.74
2018-11-03T11:45:03.848Z,11.74
2018-11-03T11:46:03.902Z,11.76
2018-11-03T11:47:04.515Z,11.74
2018-11-03T11:48:03.916Z,11.74
2018-11-03T11:49:18.626Z,11.73
2018-11-03T11:50:03.778Z,11.78
2018-11-03T11:51:03.848Z,11.8
2018-11-03T11:52:04.125Z,11.8
2018-11-03T11:53:03.955Z,11.78
2018-11-03T11:54:04.243Z,11.76
2018-11-03T11:55:05.554Z,11.78
2018-11-03T11:56:05.604Z,11.76
2018-11-03T11:57:08.158Z,11.8
2018-11-03T11:58:10.250Z,11.84
2018-11-03T11:59:04.151Z,11.81
2018-11-03T12:00:03.826Z,11.83
2018-11-03T12:01:03.824Z,11.78
2018-11-03T12:02:04.130Z,11.8
2018-11-03T12:03:03.941Z,11.79
2018-11-03T12:04:03.854Z,11.89
2018-11-03T12:05:03.823Z,11.9
2018-11-03T12:06:03.992Z,11.9
2018-11-03T12:07:03.991Z,11.89
2018-11-03T12:08:03.935Z,11.91
2018-11-03T12:09:03.825Z,11.92
2018-11-03T12:10:05.643Z,11.92
2018-11-03T12:11:03.745Z,11.94
2018-11-03T12:12:03.874Z,11.99
2018-11-03T12:13:03.934Z,11.96
2018-11-03T12:14:03.977Z,11.93
2018-11-03T12:15:04.104Z,11.97
2018-11-03T12:16:04.465Z,12.05
2018-11-03T12:17:03.972Z,12.09
2018-11-03T12:18:03.752Z,12.11
2018-11-03T12:19:03.933Z,12.11
2018-11-03T12:20:03.733Z,12.09
2018-11-03T12:21:03.794Z,12.04
2018-11-03T12:22:03.821Z,12.06
2018-11-03T12:23:03.785Z,12.09
2018-11-03T12:24:03.727Z,12.09
2018-11-03T12:25:03.748Z,12.06
2018-11-03T12:26:03.792Z,12.06
2018-11-03T12:27:05.194Z,12.07
2018-11-03T12:28:03.743Z,12.09
2018-11-03T12:29:03.779Z,12.11
2018-11-03T12:30:03.683Z,12.12
2018-11-03T12:31:03.769Z,12.15
2018-11-03T12:32:03.739Z,12.15
2018-11-03T12:33:03.934Z,12.14
2018-11-03T12:34:03.761Z,12.17
2018-11-03T12:35:03.770Z,12.16
2018-11-03T12:36:03.891Z,12.21
2018-11-03T12:37:04.158Z,12.19
2018-11-03T12:38:03.846Z,12.22
2018-11-03T12:39:03.791Z,12.24
2018-11-03T12:40:03.886Z,12.25
2018-11-03T12:41:04.475Z,12.27
2018-11-03T12:42:03.848Z,12.27
2018-11-03T12:43:03.701Z,12.27
2018-11-03T12:44:04.101Z,12.32
2018-11-03T12:45:03.826Z,12.31
2018-11-03T12:46:04.153Z,12.35
2018-11-03T12:47:03.772Z,12.32
2018-11-03T12:48:04.596Z,12.35
2018-11-03T12:49:03.880Z,12.35
2018-11-03T12:50:03.842Z,12.35
2018-11-03T12:51:03.963Z,12.4
2018-11-03T12:52:03.785Z,12.4
2018-11-03T12:53:03.862Z,12.4
2018-11-03T12:54:04.087Z,12.34
2018-11-03T12:55:03.778Z,12.33
2018-11-03T12:56:03.916Z,12.36
2018-11-03T12:57:06.230Z,12.3
2018-11-03T12:58:03.821Z,12.36
2018-11-03T12:59:05.036Z,12.33
2018-11-03T13:00:04.141Z,12.29
2018-11-03T13:01:04.405Z,12.32
2018-11-03T13:02:04.256Z,12.32
2018-11-03T13:03:03.724Z,12.3
2018-11-03T13:04:03.752Z,12.36
2018-11-03T13:05:04.834Z,12.39
2018-11-03T13:06:04.185Z,12.37
2018-11-03T13:07:06.084Z,12.43
2018-11-03T13:08:04.021Z,12.42
2018-11-03T13:09:03.692Z,12.45
2018-11-03T13:10:04.386Z,12.47
2018-11-03T13:11:04.199Z,12.48
2018-11-03T13:12:04.168Z,12.49
2018-11-03T13:13:03.840Z,12.52
2018-11-03T13:14:04.184Z,12.54
2018-11-03T13:15:03.747Z,12.58
2018-11-03T13:16:03.627Z,12.58